Naro-Fominsk, Russia
Current Conditions -  °F | °C
As of 5:00 PM on Thursday 29 Jan 2015 (Local Time) from UUWW Reporting Station
Overcast Overcast  
Wind Chill: 18°   Ceiling: 900
Heat Index: 27°   Visibility: 6mi
Dew Point: 25°   Wind: 9mph
Humidity: 93%   Direction: 160°SSE
Pressure: 29.71"   Gusts: NA
Location:  55.39°N, 36.74°E
Report Text: UUWW 291400Z 16004MPS 9999 OVC009 M03/M04 Q1006 WS RWY2424450240 NOSIG
Loading
Personal Weather Stations






























Interactive Weather Map New forecast layout! Learn more

10-Day Weather Forecast

Advertisements
Track Severe Weather on mobile